Time;durP1;ratioP1;P1;durP2;ratioP2;P2;SDS_P1;SDS_P2;PMS_P1;PMS_P2;Temp;Humidity;BMP_temperature;BMP_pressure;BME280_temperature;BME280_humidity;BME280_pressure;Samples;Min_cycle;Max_cycle;Signal;HPM_P1;HPM_P2
2021/08/22 00:00:14;;;;;;;1.33;1.23;;;18.20;1.00;;;;;;5016998;28;20202;-65
2021/08/22 00:02:39;;;;;;;1.00;0.93;;;18.20;1.00;;;;;;5017062;28;20182;-65
2021/08/22 00:05:06;;;;;;;0.60;0.50;;;18.30;1.00;;;;;;5016146;28;20182;-65
2021/08/22 00:07:31;;;;;;;0.50;0.30;;;18.20;1.00;;;;;;5016876;28;20213;-65
2021/08/22 00:09:57;;;;;;;0.40;0.10;;;18.10;1.00;;;;;;5016853;28;20420;-65
2021/08/22 00:12:22;;;;;;;0.40;0.10;;;18.10;1.00;;;;;;5015988;28;20192;-65
2021/08/22 00:14:48;;;;;;;0.40;0.20;;;18.20;1.00;;;;;;5016983;28;20189;-65
2021/08/22 00:17:13;;;;;;;0.40;0.20;;;18.10;1.00;;;;;;5016821;28;20265;-65
2021/08/22 00:19:39;;;;;;;0.40;0.20;;;18.00;1.00;;;;;;5016566;28;20190;-65
2021/08/22 00:22:04;;;;;;;0.40;0.20;;;18.10;1.00;;;;;;5016646;28;20217;-65
2021/08/22 00:24:30;;;;;;;0.50;0.30;;;18.10;1.00;;;;;;5016613;28;20244;-65
2021/08/22 00:26:56;;;;;;;0.50;0.43;;;18.00;1.00;;;;;;5015556;28;20210;-65
2021/08/22 00:29:21;;;;;;;0.40;0.20;;;18.10;1.00;;;;;;5016483;28;20201;-65
2021/08/22 00:31:47;;;;;;;0.50;0.20;;;18.10;1.00;;;;;;5016689;28;20217;-65
2021/08/22 00:34:12;;;;;;;0.40;0.20;;;18.10;1.00;;;;;;5016461;28;20206;-65
2021/08/22 00:36:38;;;;;;;0.60;0.33;;;18.10;1.00;;;;;;5015180;28;20185;-65
2021/08/22 00:39:04;;;;;;;0.43;0.27;;;18.10;1.00;;;;;;5016215;28;20185;-65
2021/08/22 00:41:31;;;;;;;0.40;0.20;;;18.00;1.00;;;;;;5016427;28;20225;-65
2021/08/22 00:43:57;;;;;;;0.40;0.20;;;18.00;1.00;;;;;;5016378;28;20433;-65
2021/08/22 00:46:23;;;;;;;0.40;0.20;;;18.00;1.00;;;;;;5016342;28;20425;-65
2021/08/22 00:48:48;;;;;;;0.40;0.20;;;18.00;1.00;;;;;;5016050;28;20182;-65
2021/08/22 00:51:18;;;;;;;0.43;0.27;;;18.00;12.10;;;;;;5015421;28;20218;-65
2021/08/22 00:53:45;;;;;;;1.37;0.53;;;17.90;23.60;;;;;;5016254;28;20181;-65
2021/08/22 00:56:14;;;;;;;0.60;0.40;;;17.90;23.30;;;;;;5015936;28;20769;-65
2021/08/22 00:58:39;;;;;;;1.03;0.40;;;17.80;23.30;;;;;;5015674;28;20491;-65
2021/08/22 01:01:17;;;;;;;1.57;1.47;;;17.80;41.80;;;;;;5015935;28;20881;-65
2021/08/22 01:04:01;;;;;;;0.40;0.27;;;17.70;31.30;;;;;;5015988;28;20170;-65
2021/08/22 01:06:41;;;;;;;0.50;0.40;;;17.70;42.00;;;;;;5015683;28;20961;-65
2021/08/22 01:09:13;;;;;;;0.50;0.30;;;17.70;26.10;;;;;;5015682;28;20429;-65
2021/08/22 01:11:40;;;;;;;0.40;0.20;;;17.80;16.00;;;;;;5015835;28;20508;-65
2021/08/22 01:14:12;;;;;;;0.80;0.20;;;17.90;1.00;;;;;;5015704;28;20508;-65
2021/08/22 01:16:42;;;;;;;0.40;0.20;;;18.00;1.00;;;;;;5015554;28;20903;-65
2021/08/22 01:19:23;;;;;;;0.50;0.50;;;18.00;1.00;;;;;;5015495;28;20446;-65
2021/08/22 01:21:49;;;;;;;0.40;0.20;;;18.00;1.00;;;;;;5015579;28;20417;-65
2021/08/22 01:24:18;;;;;;;0.70;0.50;;;18.10;1.00;;;;;;5015625;28;20755;-65
2021/08/22 01:26:45;;;;;;;0.70;0.23;;;17.90;1.00;;;;;;5015387;28;20444;-65
2021/08/22 01:29:11;;;;;;;1.13;0.97;;;17.80;1.00;;;;;;5015505;28;20426;-65
2021/08/22 01:31:43;;;;;;;0.40;0.23;;;17.70;1.00;;;;;;5015499;28;20499;-65
2021/08/22 01:34:10;;;;;;;0.40;0.20;;;17.70;1.00;;;;;;5015474;28;20421;-65
2021/08/22 01:36:36;;;;;;;0.40;0.30;;;18.00;1.00;;;;;;5015264;28;20500;-65
2021/08/22 01:39:03;;;;;;;0.40;0.20;;;18.10;1.00;;;;;;5015123;28;20421;-65
2021/08/22 01:41:28;;;;;;;0.73;0.70;;;18.10;1.00;;;;;;5015580;28;20421;-65
2021/08/22 01:43:56;;;;;;;0.40;0.20;;;18.10;1.00;;;;;;5015310;28;20421;-65
2021/08/22 01:46:27;;;;;;;0.97;0.60;;;18.10;1.00;;;;;;5015096;28;20171;-65
2021/08/22 01:48:54;;;;;;;1.10;0.40;;;18.10;1.00;;;;;;5014984;28;20445;-65
2021/08/22 01:51:20;;;;;;;0.40;0.20;;;18.10;1.00;;;;;;5015066;28;20429;-65
2021/08/22 01:53:46;;;;;;;0.40;0.20;;;18.20;1.00;;;;;;5015155;28;20429;-65
2021/08/22 01:56:12;;;;;;;0.40;0.10;;;18.00;1.00;;;;;;5015028;28;20420;-65
2021/08/22 01:58:37;;;;;;;0.40;0.20;;;18.00;1.00;;;;;;5013870;28;20428;-65
2021/08/22 02:01:03;;;;;;;0.60;0.30;;;18.00;1.00;;;;;;5015001;28;20192;-65
2021/08/22 02:03:41;;;;;;;0.40;0.10;;;18.00;1.00;;;;;;5014019;28;20186;-65
2021/08/22 02:06:31;;;;;;;0.50;0.30;;;18.00;1.00;;;;;;5014861;28;20366;-65
2021/08/22 02:09:01;;;;;;;0.50;0.40;;;18.10;1.00;;;;;;5014616;28;20450;-65
2021/08/22 02:11:53;;;;;;;0.50;0.20;;;18.20;1.00;;;;;;5014652;28;20826;-66
2021/08/22 02:14:21;;;;;;;0.40;0.13;;;18.00;1.00;;;;;;5014556;28;20456;-65
2021/08/22 02:16:49;;;;;;;0.40;0.20;;;17.80;1.00;;;;;;5014503;28;20429;-65
2021/08/22 02:19:16;;;;;;;0.50;0.30;;;17.80;1.00;;;;;;5014597;28;20456;-65
2021/08/22 02:21:42;;;;;;;0.57;0.57;;;17.80;1.00;;;;;;5014821;28;20772;-65
2021/08/22 02:24:08;;;;;;;0.50;0.30;;;17.50;1.00;;;;;;5014492;28;20425;-65
2021/08/22 02:26:34;;;;;;;0.50;0.50;;;17.40;1.00;;;;;;5014295;28;20457;-65
2021/08/22 02:29:00;;;;;;;0.40;0.20;;;17.50;1.00;;;;;;5014314;28;20819;-65
2021/08/22 02:31:28;;;;;;;0.40;0.30;;;17.50;1.00;;;;;;5013457;28;20437;-65
2021/08/22 02:33:54;;;;;;;0.40;0.20;;;17.40;1.00;;;;;;5014249;28;20495;-65
2021/08/22 02:36:20;;;;;;;0.40;0.20;;;17.30;1.00;;;;;;5014256;28;20894;-65
2021/08/22 02:38:46;;;;;;;0.40;0.20;;;17.40;1.00;;;;;;5014198;28;20432;-65
2021/08/22 02:41:12;;;;;;;0.50;0.40;;;17.30;1.00;;;;;;5014233;28;20565;-66
2021/08/22 02:43:38;;;;;;;0.40;0.20;;;17.30;1.00;;;;;;5014138;28;20631;-65
2021/08/22 02:46:04;;;;;;;0.40;0.20;;;17.30;1.00;;;;;;5014101;28;20502;-65
2021/08/22 02:48:29;;;;;;;0.40;0.20;;;17.20;1.00;;;;;;5012206;28;20465;-65
2021/08/22 02:50:55;;;;;;;1.17;1.17;;;17.10;1.00;;;;;;5014278;28;20505;-65
2021/08/22 02:53:20;;;;;;;0.77;0.77;;;17.20;1.00;;;;;;5014178;28;20694;-65
2021/08/22 02:55:46;;;;;;;0.40;0.20;;;17.10;1.00;;;;;;5013981;28;20175;-65
2021/08/22 02:58:12;;;;;;;0.60;0.50;;;17.20;1.00;;;;;;5013733;28;20671;-65
2021/08/22 03:00:37;;;;;;;0.50;0.30;;;17.20;1.00;;;;;;5012878;28;20206;-65
2021/08/22 03:03:03;;;;;;;0.70;0.60;;;17.30;1.00;;;;;;5013847;28;20264;-65
2021/08/22 03:05:29;;;;;;;0.40;0.20;;;17.40;1.00;;;;;;5014065;28;20189;-65
2021/08/22 03:07:54;;;;;;;0.40;0.20;;;17.40;1.00;;;;;;5013715;28;20216;-65
2021/08/22 03:10:20;;;;;;;0.50;0.37;;;17.40;1.00;;;;;;5013724;28;20265;-65
2021/08/22 03:12:45;;;;;;;0.40;0.20;;;17.30;1.00;;;;;;5013724;28;20216;-65
2021/08/22 03:15:11;;;;;;;0.40;0.20;;;17.20;1.00;;;;;;5012881;28;20573;-65
2021/08/22 03:17:37;;;;;;;0.40;0.20;;;17.30;1.00;;;;;;5013598;28;20182;-65
2021/08/22 03:20:04;;;;;;;0.40;0.20;;;17.40;1.00;;;;;;5012781;28;20182;-65
2021/08/22 03:22:30;;;;;;;0.40;0.20;;;17.40;1.00;;;;;;5013813;28;20173;-66
2021/08/22 03:24:56;;;;;;;0.40;0.20;;;17.30;1.00;;;;;;5013811;28;20819;-67
2021/08/22 03:27:22;;;;;;;0.40;0.20;;;17.30;1.00;;;;;;5013441;28;20467;-67
2021/08/22 03:29:47;;;;;;;0.40;0.20;;;17.40;1.00;;;;;;5013697;28;20186;-67
2021/08/22 03:32:13;;;;;;;0.50;0.30;;;17.50;1.00;;;;;;5012601;28;20611;-67
2021/08/22 03:34:39;;;;;;;0.40;0.30;;;17.50;1.00;;;;;;5013693;28;20257;-67
2021/08/22 03:37:08;;;;;;;0.40;0.20;;;17.40;1.00;;;;;;5013349;28;20287;-67
2021/08/22 03:39:33;;;;;;;0.50;0.40;;;17.30;1.00;;;;;;5013618;28;20483;-67
2021/08/22 03:41:59;;;;;;;0.40;0.20;;;17.00;1.00;;;;;;5012461;28;20441;-67
2021/08/22 03:44:25;;;;;;;0.50;0.20;;;16.90;1.00;;;;;;5012680;28;20526;-67
2021/08/22 03:46:50;;;;;;;0.40;0.20;;;16.90;1.00;;;;;;5013187;28;20922;-67
2021/08/22 03:49:16;;;;;;;0.40;0.20;;;16.90;1.00;;;;;;5013454;28;20185;-67
2021/08/22 03:51:42;;;;;;;0.40;0.20;;;17.00;1.00;;;;;;5013493;28;20269;-67
2021/08/22 03:54:07;;;;;;;0.57;0.40;;;16.80;1.00;;;;;;5012793;28;20218;-67
2021/08/22 03:56:33;;;;;;;0.40;0.10;;;16.90;1.00;;;;;;5013380;28;20185;-67
2021/08/22 03:59:00;;;;;;;0.40;0.20;;;17.20;1.00;;;;;;5012233;28;20191;-67
2021/08/22 04:01:25;;;;;;;0.40;0.20;;;17.20;1.00;;;;;;5014755;28;20182;-67
2021/08/22 04:03:51;;;;;;;0.40;0.30;;;17.00;1.00;;;;;;5017245;28;20502;-66
2021/08/22 04:06:17;;;;;;;0.40;0.20;;;16.90;1.00;;;;;;5017087;28;20601;-66
2021/08/22 04:08:42;;;;;;;0.40;0.20;;;16.90;1.00;;;;;;5016748;28;20213;-65
2021/08/22 04:11:09;;;;;;;0.40;0.20;;;17.10;1.00;;;;;;5017009;28;20170;-65
2021/08/22 04:13:35;;;;;;;0.50;0.37;;;17.10;1.00;;;;;;5016847;28;20193;-66
2021/08/22 04:16:01;;;;;;;0.40;0.20;;;16.90;1.00;;;;;;5015946;28;20897;-66
2021/08/22 04:18:26;;;;;;;0.40;0.10;;;17.10;1.00;;;;;;5016515;28;20433;-67
2021/08/22 04:20:52;;;;;;;0.40;0.20;;;17.20;1.00;;;;;;5016884;28;20515;-67
2021/08/22 04:23:18;;;;;;;0.40;0.17;;;17.00;1.00;;;;;;5016771;28;20279;-66
2021/08/22 04:25:44;;;;;;;1.00;0.57;;;17.00;1.00;;;;;;5016703;28;20214;-66
2021/08/22 04:28:10;;;;;;;0.40;0.20;;;17.00;1.00;;;;;;5016341;28;20267;-66
2021/08/22 04:30:35;;;;;;;0.40;0.20;;;17.00;1.00;;;;;;5016588;28;20429;-66
2021/08/22 04:33:01;;;;;;;0.73;0.73;;;17.20;1.00;;;;;;5016481;28;20495;-66
2021/08/22 04:35:28;;;;;;;0.40;0.20;;;17.10;1.00;;;;;;5016490;28;20218;-66
2021/08/22 04:37:54;;;;;;;0.40;0.20;;;17.10;1.00;;;;;;5015122;28;20186;-66
2021/08/22 04:40:20;;;;;;;0.50;0.50;;;16.90;1.00;;;;;;5016318;28;20916;-66
2021/08/22 04:42:45;;;;;;;0.40;0.20;;;16.80;1.00;;;;;;5015306;28;20269;-67
2021/08/22 04:45:11;;;;;;;0.40;0.20;;;16.80;1.00;;;;;;5015368;28;20429;-67
2021/08/22 04:47:37;;;;;;;0.40;0.20;;;17.00;1.00;;;;;;5016132;28;20206;-66
2021/08/22 04:50:03;;;;;;;0.40;0.20;;;17.10;1.00;;;;;;5016091;28;20178;-66
2021/08/22 04:52:29;;;;;;;0.40;0.20;;;17.10;1.00;;;;;;5016123;28;20235;-66
2021/08/22 04:54:55;;;;;;;1.40;1.30;;;17.10;1.00;;;;;;5016341;28;20429;-66
2021/08/22 04:57:20;;;;;;;0.53;0.40;;;17.00;1.00;;;;;;5015908;28;20658;-66
2021/08/22 04:59:46;;;;;;;0.50;0.27;;;17.10;1.00;;;;;;5015896;28;20204;-66
2021/08/22 05:02:11;;;;;;;0.50;0.30;;;17.10;1.00;;;;;;5015934;28;20206;-66
2021/08/22 05:04:37;;;;;;;0.40;0.20;;;17.20;1.00;;;;;;5014921;28;20210;-65
2021/08/22 05:07:05;;;;;;;0.40;0.20;;;17.10;1.00;;;;;;5014614;28;20289;-65
2021/08/22 05:09:31;;;;;;;1.10;0.40;;;17.20;1.00;;;;;;5015697;28;21001;-65
2021/08/22 05:11:56;;;;;;;0.50;0.37;;;17.10;1.00;;;;;;5015623;28;20457;-65
2021/08/22 05:14:22;;;;;;;0.40;0.20;;;17.20;1.00;;;;;;5014785;28;20436;-66
2021/08/22 05:16:48;;;;;;;0.40;0.20;;;17.20;1.00;;;;;;5015709;28;20206;-66
2021/08/22 05:19:14;;;;;;;0.40;0.20;;;17.30;1.00;;;;;;5015503;28;20480;-66
2021/08/22 05:21:39;;;;;;;0.40;0.20;;;17.30;1.00;;;;;;5015688;28;20902;-66
2021/08/22 05:24:05;;;;;;;0.40;0.20;;;17.40;1.00;;;;;;5015600;28;20542;-66
2021/08/22 05:26:30;;;;;;;0.40;0.20;;;17.40;1.00;;;;;;5015511;28;20174;-68
2021/08/22 05:28:56;;;;;;;0.40;0.10;;;17.40;1.00;;;;;;5015109;28;20202;-68
2021/08/22 05:31:22;;;;;;;0.60;0.50;;;17.50;1.00;;;;;;5015399;28;20600;-68
2021/08/22 05:33:47;;;;;;;0.40;0.20;;;17.30;1.00;;;;;;5015291;28;20248;-67
2021/08/22 05:36:21;;;;;;;0.70;0.57;;;17.20;1.00;;;;;;5014137;28;20488;-66
2021/08/22 05:38:48;;;;;;;1.43;0.67;;;17.10;1.00;;;;;;5014117;28;20715;-66
2021/08/22 05:41:14;;;;;;;0.60;0.53;;;17.00;1.00;;;;;;5015266;28;20432;-66
2021/08/22 05:43:39;;;;;;;0.93;0.77;;;17.00;1.00;;;;;;5014245;28;20878;-66
2021/08/22 05:46:05;;;;;;;0.40;0.20;;;17.00;1.00;;;;;;5015271;28;20499;-66
2021/08/22 05:48:33;;;;;;;0.63;0.60;;;17.10;1.00;;;;;;5014732;28;20469;-67
2021/08/22 05:50:59;;;;;;;0.50;0.40;;;17.00;1.00;;;;;;5013945;28;20429;-67
2021/08/22 05:53:25;;;;;;;0.50;0.30;;;16.90;1.00;;;;;;5014770;28;20757;-68
2021/08/22 05:55:50;;;;;;;1.23;0.73;;;17.10;1.00;;;;;;5014935;28;20433;-67
2021/08/22 05:58:16;;;;;;;0.40;0.30;;;17.10;1.00;;;;;;5014595;28;20210;-67
2021/08/22 06:00:41;;;;;;;0.40;0.20;;;17.10;1.00;;;;;;5014735;28;20635;-68
2021/08/22 06:03:07;;;;;;;0.80;0.50;;;17.10;1.00;;;;;;5014689;28;20186;-69
2021/08/22 06:05:33;;;;;;;0.40;0.20;;;17.10;1.00;;;;;;5013702;28;20638;-68
2021/08/22 06:07:58;;;;;;;0.40;0.23;;;17.20;1.00;;;;;;5014090;28;20595;-68
2021/08/22 06:10:24;;;;;;;0.40;0.20;;;17.30;1.00;;;;;;5014320;28;20178;-68
2021/08/22 06:12:49;;;;;;;0.40;0.20;;;17.40;1.00;;;;;;5014591;28;20209;-68
2021/08/22 06:15:15;;;;;;;0.80;0.50;;;17.50;1.00;;;;;;5014669;28;20179;-67
2021/08/22 06:17:40;;;;;;;0.40;0.20;;;17.60;1.00;;;;;;5014599;28;20186;-69
2021/08/22 06:20:07;;;;;;;0.53;0.30;;;17.80;1.00;;;;;;5013365;28;20214;-70
2021/08/22 06:22:33;;;;;;;0.40;0.20;;;17.90;99.90;;;;;;5014647;28;20196;-69
2021/08/22 06:24:59;;;;;;;0.40;0.20;;;17.80;99.90;;;;;;5012670;28;20476;-69
2021/08/22 06:27:24;;;;;;;0.40;0.20;;;18.00;99.90;;;;;;5013180;28;20932;-69
2021/08/22 06:29:50;;;;;;;0.40;0.20;;;18.20;99.90;;;;;;5014233;28;20227;-69
2021/08/22 06:32:16;;;;;;;0.90;0.50;;;18.40;99.90;;;;;;5014524;28;20228;-68
2021/08/22 06:34:41;;;;;;;2.13;2.00;;;18.10;85.60;;;;;;5014208;28;20178;-68
2021/08/22 06:37:09;;;;;;;0.40;0.20;;;18.00;99.90;;;;;;5014143;28;20198;-67
2021/08/22 06:39:40;;;;;;;0.40;0.20;;;18.00;99.90;;;;;;5014030;28;20480;-67
2021/08/22 06:42:06;;;;;;;0.60;0.53;;;18.00;99.90;;;;;;5014403;28;20467;-68
2021/08/22 06:44:33;;;;;;;0.40;0.20;;;18.30;99.90;;;;;;5014172;28;20431;-68
2021/08/22 06:46:59;;;;;;;0.40;0.20;;;18.50;1.00;;;;;;5013175;28;20469;-67
2021/08/22 06:49:24;;;;;;;0.40;0.10;;;18.50;99.90;;;;;;5014364;28;20739;-67
2021/08/22 06:51:50;;;;;;;0.40;0.20;;;18.50;1.00;;;;;;5014532;28;20421;-68
2021/08/22 06:54:15;;;;;;;0.40;0.20;;;18.50;44.10;;;;;;5014383;28;20182;-68
2021/08/22 06:56:41;;;;;;;1.27;0.40;;;18.50;81.80;;;;;;5013848;28;20261;-67
2021/08/22 06:59:07;;;;;;;0.40;0.20;;;18.30;1.00;;;;;;5013818;28;20221;-69
2021/08/22 07:01:32;;;;;;;0.40;0.20;;;18.40;99.90;;;;;;5014430;28;20630;-67
2021/08/22 07:03:58;;;;;;;0.40;0.20;;;18.60;1.00;;;;;;5025544;28;20196;-67
2021/08/22 07:06:23;;;;;;;0.50;0.33;;;18.60;1.00;;;;;;5034164;28;20219;-68
2021/08/22 07:08:49;;;;;;;0.63;0.37;;;18.70;1.00;;;;;;5033648;28;20267;-68
2021/08/22 07:11:14;;;;;;;0.40;0.20;;;18.40;99.90;;;;;;5033782;28;20184;-68
2021/08/22 07:13:41;;;;;;;0.70;0.60;;;18.50;1.00;;;;;;5033564;28;20204;-68
2021/08/22 07:16:07;;;;;;;1.13;1.03;;;18.40;99.90;;;;;;5033445;28;20607;-69
2021/08/22 07:18:33;;;;;;;0.40;0.10;;;18.20;1.00;;;;;;5032218;28;20455;-69
2021/08/22 07:20:59;;;;;;;0.60;0.50;;;18.20;1.00;;;;;;5033565;28;20428;-69
2021/08/22 07:23:26;;;;;;;2.10;1.00;;;18.30;1.00;;;;;;5033403;28;20430;-68
2021/08/22 07:25:55;;;;;;;0.67;0.63;;;18.20;1.00;;;;;;5032464;28;20502;-68
2021/08/22 07:28:20;;;;;;;1.17;0.87;;;18.20;1.00;;;;;;5031947;28;20478;-68
2021/08/22 07:30:46;;;;;;;0.50;0.50;;;18.30;1.00;;;;;;5032583;28;20424;-68
2021/08/22 07:33:11;;;;;;;0.57;0.40;;;18.40;99.90;;;;;;5033355;28;20185;-68
2021/08/22 07:35:37;;;;;;;0.50;0.30;;;18.50;1.00;;;;;;5035458;28;20178;-68
2021/08/22 07:38:03;;;;;;;0.60;0.60;;;18.70;49.60;;;;;;5036428;28;20288;-67
2021/08/22 07:40:28;;;;;;;0.40;0.20;;;18.90;1.00;;;;;;5037219;28;20177;-67
2021/08/22 07:42:54;;;;;;;1.37;0.97;;;18.90;99.90;;;;;;5037347;28;20268;-67
2021/08/22 07:45:19;;;;;;;0.50;0.30;;;18.60;8.80;;;;;;5038141;28;20169;-66
2021/08/22 07:47:45;;;;;;;1.53;0.40;;;18.70;99.90;;;;;;5038573;28;20215;-66
2021/08/22 07:50:11;;;;;;;0.40;0.20;;;18.60;1.00;;;;;;5038743;28;20228;-66
2021/08/22 07:52:36;;;;;;;0.40;0.20;;;18.80;99.90;;;;;;5038609;28;20181;-66
2021/08/22 07:55:03;;;;;;;0.50;0.27;;;18.80;1.00;;;;;;5039177;28;20170;-66
2021/08/22 07:57:30;;;;;;;0.87;0.30;;;18.90;1.00;;;;;;5041315;28;20482;-66
2021/08/22 07:59:56;;;;;;;0.50;0.40;;;18.90;1.00;;;;;;5040655;28;20446;-66
2021/08/22 08:02:21;;;;;;;0.47;0.30;;;18.60;1.00;;;;;;5040874;28;20420;-66
2021/08/22 08:04:47;;;;;;;0.40;0.20;;;18.40;99.90;;;;;;5039875;28;20211;-66
2021/08/22 08:07:13;;;;;;;0.50;0.30;;;18.40;99.90;;;;;;5040059;28;20225;-65
2021/08/22 08:09:38;;;;;;;0.97;0.97;;;18.50;99.90;;;;;;5040690;28;20182;-65
2021/08/22 08:12:04;;;;;;;0.40;0.20;;;18.50;99.90;;;;;;5041091;28;20178;-68
2021/08/22 08:14:30;;;;;;;0.67;0.30;;;18.50;99.90;;;;;;5039573;28;20213;-68
2021/08/22 08:16:55;;;;;;;0.53;0.40;;;18.50;1.00;;;;;;5040109;28;20478;-68
2021/08/22 08:19:21;;;;;;;0.40;0.17;;;18.50;99.90;;;;;;5040077;28;20182;-67
2021/08/22 08:21:46;;;;;;;0.60;0.57;;;18.30;1.00;;;;;;5038729;28;20190;-67
2021/08/22 08:24:12;;;;;;;10.80;0.93;;;18.20;1.00;;;;;;5036710;28;20313;-67
2021/08/22 08:26:38;;;;;;;0.67;0.40;;;18.30;1.00;;;;;;5036886;28;20196;-67
2021/08/22 08:29:04;;;;;;;0.97;0.70;;;18.30;1.00;;;;;;5036018;28;20468;-67
2021/08/22 08:31:30;;;;;;;0.50;0.30;;;18.20;1.00;;;;;;5036390;28;20185;-67
2021/08/22 08:33:55;;;;;;;0.50;0.20;;;18.30;1.00;;;;;;5036275;28;20523;-69
2021/08/22 08:36:21;;;;;;;0.63;0.40;;;18.40;1.00;;;;;;5033669;28;20769;-68
2021/08/22 08:38:47;;;;;;;0.97;0.50;;;18.60;99.90;;;;;;5033171;28;20194;-69
2021/08/22 08:41:14;;;;;;;0.50;0.23;;;18.60;99.90;;;;;;5036379;28;20201;-69
2021/08/22 08:43:40;;;;;;;2.10;0.40;;;18.80;99.90;;;;;;5035476;28;20766;-68
2021/08/22 08:46:26;;;;;;;0.43;0.30;;;18.90;1.00;;;;;;5035410;28;20432;-67
2021/08/22 08:49:07;;;;;;;0.83;0.50;;;18.80;1.00;;;;;;5035641;28;20514;-67
2021/08/22 08:51:38;;;;;;;0.80;0.60;;;18.80;1.00;;;;;;5036517;28;20428;-67
2021/08/22 08:54:17;;;;;;;0.43;0.23;;;18.70;99.90;;;;;;5035971;28;20419;-67
2021/08/22 08:56:44;;;;;;;0.40;0.20;;;18.70;1.00;;;;;;5035424;28;20515;-68
2021/08/22 08:59:11;;;;;;;0.83;0.77;;;18.90;99.90;;;;;;5035547;28;20452;-67
2021/08/22 09:01:38;;;;;;;0.40;0.20;;;18.80;99.90;;;;;;5035490;28;20432;-67
2021/08/22 09:04:15;;;;;;;1.60;1.23;;;18.80;99.90;;;;;;5034719;28;20436;-67
2021/08/22 09:07:19;;;;;;;0.40;0.20;;;18.80;99.90;;;;;;5031794;28;20441;-67
2021/08/22 09:10:16;;;;;;;0.40;0.20;;;18.80;1.00;;;;;;5028786;28;20440;-67
2021/08/22 09:12:54;;;;;;;0.40;0.20;;;18.90;99.90;;;;;;5026488;28;20920;-67
2021/08/22 09:15:57;;;;;;;0.40;0.10;;;18.70;99.90;;;;;;5025855;28;20424;-67
2021/08/22 09:19:00;;;;;;;0.90;0.60;;;18.60;1.00;;;;;;5022294;28;20515;-67
2021/08/22 09:21:47;;;;;;;0.40;0.20;;;18.60;1.00;;;;;;5026326;28;20922;-67
2021/08/22 09:24:18;;;;;;;0.60;0.60;;;18.90;1.00;;;;;;5026007;28;20452;-67
2021/08/22 09:27:23;;;;;;;0.40;0.20;;;18.90;99.90;;;;;;5025672;28;20416;-67
2021/08/22 09:30:16;;;;;;;1.27;1.27;;;18.90;1.00;;;;;;5024949;28;20534;-67
2021/08/22 09:33:19;;;;;;;0.50;0.50;;;18.70;99.90;;;;;;5058001;28;20440;-68
2021/08/22 09:36:02;;;;;;;0.40;0.20;;;18.60;1.00;;;;;;5034270;28;20431;-68
2021/08/22 09:39:06;;;;;;;0.70;0.50;;;18.20;1.00;;;;;;5026863;28;20475;-68
2021/08/22 09:42:29;;;;;;;0.50;0.30;;;17.90;1.00;;;;;;5024750;28;20447;-68
2021/08/22 09:45:31;;;;;;;0.70;0.30;;;17.80;99.90;;;;;;5025665;28;20504;-66
2021/08/22 09:48:39;;;;;;;0.90;0.63;;;17.70;99.90;;;;;;5024277;28;20459;-65
2021/08/22 09:51:16;;;;;;;0.40;0.20;;;17.50;99.90;;;;;;5025505;28;20456;-66
2021/08/22 09:54:12;;;;;;;0.50;0.40;;;17.50;99.90;;;;;;5023587;28;20877;-66
2021/08/22 09:57:21;;;;;;;0.50;0.20;;;17.50;99.90;;;;;;5024053;28;20428;-66
2021/08/22 10:00:11;;;;;;;0.50;0.40;;;17.40;99.90;;;;;;5020037;28;20528;-66
2021/08/22 10:03:02;;;;;;;0.40;0.30;;;17.60;99.90;;;;;;5014728;28;20459;-66
2021/08/22 10:05:33;;;;;;;0.60;0.50;;;17.60;99.90;;;;;;5013277;28;20497;-66
2021/08/22 10:08:12;;;;;;;0.93;0.83;;;17.60;99.90;;;;;;5014459;28;20480;-66
2021/08/22 10:10:47;;;;;;;0.50;0.30;;;17.60;99.90;;;;;;5022494;28;20526;-66
2021/08/22 10:13:13;;;;;;;0.40;0.20;;;17.70;99.90;;;;;;5025027;28;20437;-65
2021/08/22 10:15:43;;;;;;;0.60;0.40;;;17.70;99.90;;;;;;5017344;28;20495;-65
2021/08/22 10:18:09;;;;;;;2.30;0.80;;;17.70;99.90;;;;;;5013047;28;20190;-66
2021/08/22 10:20:42;;;;;;;1.37;1.27;;;17.90;99.90;;;;;;5014384;28;20424;-66
2021/08/22 10:23:38;;;;;;;0.50;0.40;;;17.80;99.90;;;;;;5027829;28;20499;-66
2021/08/22 10:26:04;;;;;;;0.63;0.63;;;17.80;99.90;;;;;;5033314;28;20723;-67
2021/08/22 10:28:45;;;;;;;0.80;0.57;;;17.90;99.90;;;;;;5033912;28;20502;-67
2021/08/22 10:31:14;;;;;;;2.10;0.87;;;18.00;99.90;;;;;;5034114;28;20487;-67
2021/08/22 10:34:13;;;;;;;0.77;0.73;;;17.90;99.90;;;;;;5032784;28;20988;-67
2021/08/22 10:36:40;;;;;;;1.13;1.00;;;18.00;99.90;;;;;;5033919;28;20416;-68
2021/08/22 10:39:26;;;;;;;0.60;0.50;;;18.10;99.90;;;;;;5033921;28;20486;-67
2021/08/22 10:41:53;;;;;;;0.50;0.20;;;17.80;99.90;;;;;;5024902;28;20515;-67
2021/08/22 10:44:34;;;;;;;0.97;0.57;;;18.00;99.90;;;;;;5015624;28;20436;-67
2021/08/22 10:47:04;;;;;;;0.50;0.50;;;18.00;99.90;;;;;;5025301;28;20441;-67
2021/08/22 10:49:54;;;;;;;0.40;0.10;;;17.90;99.90;;;;;;5024578;28;20481;-67
2021/08/22 10:52:36;;;;;;;0.40;0.20;;;17.90;99.90;;;;;;5033562;28;20419;-67
2021/08/22 10:55:28;;;;;;;0.40;0.20;;;17.90;99.90;;;;;;5031326;28;20432;-67
2021/08/22 10:57:54;;;;;;;0.50;0.47;;;17.80;99.90;;;;;;5032167;28;20774;-67
2021/08/22 11:00:25;;;;;;;0.50;0.30;;;18.00;99.90;;;;;;5033307;28;20928;-67
2021/08/22 11:02:54;;;;;;;0.50;0.40;;;18.00;99.90;;;;;;5017216;28;20194;-67
2021/08/22 11:05:22;;;;;;;0.43;0.23;;;17.90;99.90;;;;;;5013904;28;20444;-67
2021/08/22 11:07:51;;;;;;;2.20;0.37;;;17.90;99.90;;;;;;5015401;28;20496;-67
2021/08/22 11:10:25;;;;;;;0.40;0.20;;;18.10;99.90;;;;;;5018392;28;20436;-67
2021/08/22 11:12:51;;;;;;;1.17;0.73;;;18.10;99.90;;;;;;5021386;28;20425;-66
2021/08/22 11:15:24;;;;;;;0.40;0.23;;;18.30;99.90;;;;;;5013730;28;20896;-66
2021/08/22 11:17:54;;;;;;;0.40;0.10;;;18.20;99.90;;;;;;5013562;28;20433;-66
2021/08/22 11:20:23;;;;;;;0.80;0.70;;;18.10;99.90;;;;;;5013554;28;20425;-66
2021/08/22 11:22:51;;;;;;;0.40;0.20;;;18.10;99.90;;;;;;5013675;28;20428;-67
2021/08/22 11:25:17;;;;;;;0.40;0.20;;;18.10;99.90;;;;;;5013666;28;20429;-67
2021/08/22 11:27:44;;;;;;;2.20;0.63;;;18.30;99.90;;;;;;5013131;28;20473;-66
2021/08/22 11:30:12;;;;;;;1.03;0.30;;;18.50;99.90;;;;;;5013173;28;20433;-66
2021/08/22 11:32:47;;;;;;;0.40;0.20;;;18.30;99.90;;;;;;5013637;28;20421;-67
2021/08/22 11:35:24;;;;;;;0.50;0.20;;;18.10;99.90;;;;;;5013619;28;20432;-67
2021/08/22 11:37:51;;;;;;;0.40;0.20;;;18.00;99.90;;;;;;5013160;28;20435;-66
2021/08/22 11:40:19;;;;;;;0.50;0.40;;;18.10;99.90;;;;;;5013211;28;20959;-66
2021/08/22 11:42:50;;;;;;;0.50;0.40;;;18.20;99.90;;;;;;5013413;28;20524;-66
2021/08/22 11:45:18;;;;;;;0.40;0.20;;;18.30;99.90;;;;;;5013181;28;20464;-66
2021/08/22 11:47:44;;;;;;;1.33;0.50;;;18.40;99.90;;;;;;5013304;28;20843;-66
2021/08/22 11:50:11;;;;;;;0.40;0.20;;;18.00;99.90;;;;;;5013166;28;20456;-66
2021/08/22 11:52:41;;;;;;;0.50;0.43;;;18.50;99.90;;;;;;5012459;28;20761;-66
2021/08/22 11:55:08;;;;;;;0.90;0.40;;;18.30;99.90;;;;;;5013132;28;20417;-67
2021/08/22 11:57:34;;;;;;;0.63;0.50;;;18.00;99.90;;;;;;5013040;28;20440;-67
2021/08/22 12:00:17;;;;;;;0.40;0.20;;;18.20;99.90;;;;;;5012691;28;20458;-67
2021/08/22 12:03:00;;;;;;;0.77;0.77;;;18.30;99.90;;;;;;5030381;28;20239;-67
2021/08/22 12:05:30;;;;;;;0.50;0.30;;;18.50;99.90;;;;;;5025595;28;20432;-66
2021/08/22 12:08:08;;;;;;;0.40;0.30;;;18.50;99.90;;;;;;5028831;28;20503;-65
2021/08/22 12:10:37;;;;;;;0.40;0.20;;;18.30;99.90;;;;;;5028339;28;20439;-67
2021/08/22 12:13:04;;;;;;;0.40;0.20;;;18.20;99.90;;;;;;5031790;28;20558;-66
2021/08/22 12:15:35;;;;;;;1.23;0.70;;;18.30;99.90;;;;;;5031558;28;20448;-66
2021/08/22 12:18:23;;;;;;;0.40;0.20;;;18.30;99.90;;;;;;5032616;28;20475;-66
2021/08/22 12:21:15;;;;;;;0.40;0.20;;;18.30;99.90;;;;;;5032456;28;20478;-67
2021/08/22 12:24:01;;;;;;;0.40;0.20;;;18.10;99.90;;;;;;5036400;28;20432;-66
2021/08/22 12:26:29;;;;;;;0.57;0.57;;;18.30;99.90;;;;;;5036203;28;20448;-66
2021/08/22 12:29:06;;;;;;;0.40;0.20;;;18.10;99.90;;;;;;5035964;28;20960;-66
2021/08/22 12:31:34;;;;;;;0.40;0.20;;;17.80;99.90;;;;;;5036177;28;20455;-66
2021/08/22 12:34:07;;;;;;;0.40;0.20;;;17.90;99.90;;;;;;5036112;28;20761;-66
2021/08/22 12:36:38;;;;;;;0.40;0.20;;;18.20;99.90;;;;;;5036045;28;20428;-66
2021/08/22 12:39:05;;;;;;;0.53;0.30;;;18.30;99.90;;;;;;5035878;28;20824;-65
2021/08/22 12:41:37;;;;;;;0.40;0.17;;;18.40;99.90;;;;;;5035724;28;20897;-65
2021/08/22 12:44:08;;;;;;;0.40;0.20;;;18.40;99.90;;;;;;5035046;28;20428;-65
2021/08/22 12:46:35;;;;;;;0.40;0.20;;;18.30;99.90;;;;;;5035888;28;20432;-65
2021/08/22 12:49:01;;;;;;;0.67;0.40;;;18.00;99.90;;;;;;5035433;28;20482;-65
2021/08/22 12:51:27;;;;;;;1.47;1.37;;;18.20;99.90;;;;;;5035728;28;20501;-65
2021/08/22 12:53:55;;;;;;;0.40;0.20;;;18.20;99.90;;;;;;5035815;28;20425;-65
2021/08/22 12:56:52;;;;;;;;;;;;;;;;;;;;;
2021/08/22 13:00:08;;;;;;;;;;;;;;;;;;;;;
2021/08/22 13:03:07;;;;;;;3.03;2.73;;;17.50;99.90;;;;;;5035614;28;20924;-65
2021/08/22 13:05:33;;;;;;;0.53;0.50;;;17.20;99.90;;;;;;5035271;28;20440;-65
2021/08/22 13:07:59;;;;;;;1.50;0.70;;;17.40;99.90;;;;;;5035376;28;20771;-65
2021/08/22 13:10:24;;;;;;;0.50;0.40;;;17.60;99.90;;;;;;5035310;28;20239;-65